ウィーン の空港の天気 - METARとTAF

ウィーン国際空港 ( LOWW / VIE ) - オーストリア ウィーン
飛行場実況気象(Metar)
観測時間08/16 08:20 CEST (08/16 06:20 UTC)
風向・風速北北西 3m/s
視程10km以上
天気現象
なし
気温20℃
湿度68%
気圧1020hPa
METARLOWW 160620Z 34006KT CAVOK 20/14 Q1020 NOSIG
過去の天気等 Google飛行場航空写真 Wunderground天気予報

過去48時間のMETAR

飛行場予報(TAF)
発表時間: 8/16 07:15 CEST (8/16 05:15 UTC)
予報対象時間: 16日8時 CEST ~ 17日14時 CEST
風向・風速北北西 3m/s
視程10km以上
なし
16日9時 CEST ~ 16日11時 CEST に徐々に
風向・風速北北東 4m/s
16日17時 CEST ~ 16日19時 CEST に徐々に
風向・風速不定 1m/s
17日9時 CEST ~ 17日11時 CEST に徐々に
風向・風速南東 4m/s
TAF LOWW 160515Z 1606/1712 33005KT CAVOK TX30/1614Z TN14/1703Z
BECMG 1607/1609 03007KT
BECMG 1615/1617 VRB02KT
BECMG 1707/1709 14007KT